Time;durP1;ratioP1;P1;durP2;ratioP2;P2;SDS_P1;SDS_P2;PMS_P1;PMS_P2;Temp;Humidity;BMP_temperature;BMP_pressure;BME280_temperature;BME280_humidity;BME280_pressure;Samples;Min_cycle;Max_cycle;Signal;HPM_P1;HPM_P2
2022/10/12 00:00:49;;;;;;;9.80;3.85;;;7.60;99.90;;;;;;6241050;23;20015;-88
2022/10/12 00:03:15;;;;;;;9.02;4.35;;;7.60;99.90;;;;;;6242086;22;20098;-89
2022/10/12 00:05:41;;;;;;;10.80;4.40;;;7.50;99.90;;;;;;6239112;23;20341;-88
2022/10/12 00:08:06;;;;;;;8.15;3.80;;;7.50;99.90;;;;;;6241999;23;20083;-88
2022/10/12 00:10:32;;;;;;;11.77;4.38;;;7.50;99.90;;;;;;6239689;23;20453;-88
2022/10/12 00:12:58;;;;;;;8.85;4.07;;;7.50;99.90;;;;;;6239406;23;20008;-88
2022/10/12 00:15:24;;;;;;;8.90;3.90;;;7.50;99.90;;;;;;6239444;23;20019;-88
2022/10/12 00:17:49;;;;;;;7.60;3.50;;;7.50;99.90;;;;;;6239751;23;20012;-88
2022/10/12 00:20:15;;;;;;;9.15;3.53;;;7.50;99.90;;;;;;6239668;23;20012;-88
2022/10/12 00:22:41;;;;;;;9.00;3.83;;;7.40;99.90;;;;;;6241209;23;20031;-88
2022/10/12 00:25:06;;;;;;;11.25;3.95;;;7.40;99.90;;;;;;6240015;23;20012;-88
2022/10/12 00:27:32;;;;;;;12.45;3.85;;;7.40;99.90;;;;;;6239432;23;20012;-88
2022/10/12 00:29:58;;;;;;;11.52;4.05;;;7.40;99.90;;;;;;6241365;23;20008;-88
2022/10/12 00:32:23;;;;;;;8.50;3.63;;;7.40;99.90;;;;;;6239749;23;20016;-88
2022/10/12 00:34:49;;;;;;;8.90;3.58;;;7.40;99.90;;;;;;6241418;23;20061;-88
2022/10/12 00:37:14;;;;;;;9.15;3.45;;;7.40;99.90;;;;;;6241356;23;20027;-88
2022/10/12 00:39:40;;;;;;;8.90;3.88;;;7.30;99.90;;;;;;6240882;23;20020;-88
2022/10/12 00:42:05;;;;;;;9.85;3.67;;;7.30;99.90;;;;;;6239649;23;20027;-88
2022/10/12 00:44:42;;;;;;;7.88;3.30;;;7.40;99.90;;;;;;6240670;23;20362;-89
2022/10/12 00:47:21;;;;;;;9.27;3.47;;;7.30;99.90;;;;;;6241167;22;20070;-88
2022/10/12 00:50:02;;;;;;;8.82;3.50;;;7.30;99.90;;;;;;6241270;22;20048;-88
2022/10/12 00:52:39;;;;;;;7.25;3.30;;;7.30;99.90;;;;;;6241336;23;20016;-88
2022/10/12 00:55:07;;;;;;;7.38;3.60;;;7.30;99.90;;;;;;6239720;23;20008;-88
2022/10/12 00:57:33;;;;;;;8.52;3.58;;;7.30;99.90;;;;;;6239464;23;20058;-88
2022/10/12 01:00:05;;;;;;;10.32;3.45;;;7.30;99.90;;;;;;6239084;23;20358;-88
2022/10/12 01:02:33;;;;;;;10.23;5.28;;;7.20;99.90;;;;;;6240584;22;20016;-87
2022/10/12 01:04:59;;;;;;;10.13;3.63;;;7.20;99.90;;;;;;6241793;22;20016;-87
2022/10/12 01:07:25;;;;;;;8.45;3.75;;;7.20;99.90;;;;;;6241429;22;20015;-88
2022/10/12 01:09:51;;;;;;;7.75;3.25;;;7.10;99.90;;;;;;6241508;23;20008;-88
2022/10/12 01:12:18;;;;;;;9.45;3.42;;;7.10;99.90;;;;;;6243693;22;20321;-88
2022/10/12 01:14:44;;;;;;;7.07;2.90;;;7.10;99.90;;;;;;6240626;23;20461;-88
2022/10/12 01:17:31;;;;;;;9.00;3.03;;;7.10;99.90;;;;;;6243245;22;20027;-89
2022/10/12 01:20:29;;;;;;;5.40;2.97;;;7.10;99.90;;;;;;6241193;23;20016;-88
2022/10/12 01:23:36;;;;;;;9.57;3.50;;;7.00;99.90;;;;;;6215766;23;20012;-88
2022/10/12 01:26:26;;;;;;;7.45;3.13;;;7.00;99.90;;;;;;6242700;23;20019;-88
2022/10/12 01:29:17;;;;;;;6.57;3.17;;;7.00;99.90;;;;;;6240844;23;20012;-88
2022/10/12 01:31:47;;;;;;;9.07;2.97;;;7.00;99.90;;;;;;6243692;23;20705;-88
2022/10/12 01:34:16;;;;;;;9.98;3.88;;;7.00;99.90;;;;;;6242589;22;20457;-89
2022/10/12 01:36:48;;;;;;;6.95;3.28;;;7.00;99.90;;;;;;6243120;23;20020;-88
2022/10/12 01:39:25;;;;;;;7.13;3.00;;;6.90;99.90;;;;;;6241663;23;20012;-89
2022/10/12 01:41:57;;;;;;;12.50;3.33;;;6.90;99.90;;;;;;6241460;23;20042;-88
2022/10/12 01:44:24;;;;;;;10.02;2.90;;;6.90;99.90;;;;;;6240492;23;20016;-88
2022/10/12 01:46:52;;;;;;;12.10;2.80;;;6.80;99.90;;;;;;6242898;22;20008;-88
2022/10/12 01:49:24;;;;;;;7.45;2.88;;;6.90;99.90;;;;;;6241535;22;20448;-88
2022/10/12 01:51:59;;;;;;;9.02;3.33;;;6.80;99.90;;;;;;6241007;23;20125;-88
2022/10/12 01:54:42;;;;;;;9.32;2.65;;;6.80;99.90;;;;;;6241227;23;20024;-88
2022/10/12 01:57:19;;;;;;;7.97;2.53;;;6.80;99.90;;;;;;6240650;23;20022;-88
2022/10/12 01:59:55;;;;;;;10.75;2.80;;;6.80;99.90;;;;;;6215622;23;20436;-88
2022/10/12 02:02:34;;;;;;;6.88;2.17;;;6.80;99.90;;;;;;6240355;23;20085;-89
2022/10/12 02:05:24;;;;;;;7.95;2.78;;;6.80;99.90;;;;;;6242984;22;20075;-88
2022/10/12 02:08:00;;;;;;;6.72;2.50;;;6.70;99.90;;;;;;6240855;23;20092;-88
2022/10/12 02:11:03;;;;;;;7.43;2.88;;;6.70;99.90;;;;;;6241043;23;20027;-88
2022/10/12 02:13:34;;;;;;;6.18;2.75;;;6.70;99.90;;;;;;6242121;23;20088;-88
2022/10/12 02:16:02;;;;;;;5.65;2.50;;;6.70;99.90;;;;;;6240530;23;20015;-89
2022/10/12 02:18:29;;;;;;;8.88;2.80;;;6.70;99.90;;;;;;6243049;22;20016;-88
2022/10/12 02:20:59;;;;;;;9.20;2.25;;;6.70;99.90;;;;;;6242318;22;20008;-89
2022/10/12 02:23:27;;;;;;;8.55;3.05;;;6.70;99.90;;;;;;6242360;22;20098;-88
2022/10/12 02:25:53;;;;;;;6.97;2.33;;;6.80;99.90;;;;;;6240228;23;20020;-88
2022/10/12 02:28:22;;;;;;;8.23;3.00;;;6.80;99.90;;;;;;6242621;22;20019;-88
2022/10/12 02:31:09;;;;;;;8.02;2.58;;;6.80;99.90;;;;;;6240690;23;20012;-88
2022/10/12 02:34:01;;;;;;;7.18;2.28;;;6.80;99.90;;;;;;6241894;22;20019;-88
2022/10/12 02:36:44;;;;;;;8.32;3.03;;;6.90;99.90;;;;;;6182718;23;20099;-88
2022/10/12 02:39:28;;;;;;;4.93;2.58;;;6.90;99.90;;;;;;6242769;22;20012;-88
2022/10/12 02:41:58;;;;;;;7.20;2.75;;;6.90;99.90;;;;;;6240001;23;20055;-88
2022/10/12 02:44:28;;;;;;;7.07;3.33;;;6.90;99.90;;;;;;6240796;23;20604;-88
2022/10/12 02:46:57;;;;;;;6.32;2.55;;;6.90;99.90;;;;;;6240278;23;20023;-88
2022/10/12 02:49:25;;;;;;;6.38;2.97;;;7.60;99.90;;;;;;6243696;22;20030;-87
2022/10/12 02:51:53;;;;;;;9.68;2.78;;;6.90;99.90;;;;;;6241352;23;20020;-89
2022/10/12 02:54:19;;;;;;;7.03;2.38;;;7.00;99.90;;;;;;6242241;22;20012;-87
2022/10/12 02:56:46;;;;;;;7.93;2.60;;;7.00;99.90;;;;;;6239746;22;20012;-88
2022/10/12 02:59:17;;;;;;;7.82;2.60;;;7.00;99.90;;;;;;6240487;23;20095;-88
2022/10/12 03:01:43;;;;;;;9.82;3.10;;;7.00;99.90;;;;;;6242774;22;20027;-88
2022/10/12 03:04:09;;;;;;;13.55;3.22;;;7.00;99.90;;;;;;6240548;23;20064;-88
2022/10/12 03:06:34;;;;;;;6.10;2.63;;;7.00;99.90;;;;;;6240274;23;20016;-88
2022/10/12 03:09:00;;;;;;;8.57;2.55;;;7.00;99.90;;;;;;6240609;23;20040;-88
2022/10/12 03:11:26;;;;;;;7.05;2.90;;;7.00;99.90;;;;;;6214968;23;20024;-88
2022/10/12 03:13:53;;;;;;;7.50;3.30;;;7.00;99.90;;;;;;6239594;23;20852;-88
2022/10/12 03:16:19;;;;;;;7.53;2.90;;;6.90;99.90;;;;;;6240617;23;20016;-88
2022/10/12 03:18:45;;;;;;;7.28;2.63;;;6.90;99.90;;;;;;6241950;23;20433;-88
2022/10/12 03:21:11;;;;;;;8.68;3.47;;;6.90;99.90;;;;;;6241826;22;20019;-89
2022/10/12 03:23:39;;;;;;;7.80;2.60;;;6.90;99.90;;;;;;6240694;23;20066;-89
2022/10/12 03:26:05;;;;;;;12.55;3.00;;;6.90;99.90;;;;;;6242031;22;20012;-88
2022/10/12 03:28:31;;;;;;;8.05;2.75;;;6.90;99.90;;;;;;6214578;23;20069;-88
2022/10/12 03:30:58;;;;;;;9.10;2.67;;;6.80;99.90;;;;;;6242307;22;20017;-88
2022/10/12 03:33:24;;;;;;;6.03;3.22;;;6.80;99.90;;;;;;6239853;23;20027;-89
2022/10/12 03:35:50;;;;;;;5.78;2.85;;;6.80;99.90;;;;;;6239994;23;20016;-89
2022/10/12 03:38:17;;;;;;;11.13;3.40;;;6.80;99.90;;;;;;6240875;23;20396;-88
2022/10/12 03:40:43;;;;;;;8.18;3.33;;;6.50;99.90;;;;;;6240322;23;20781;-89
2022/10/12 03:43:09;;;;;;;9.98;3.35;;;6.80;99.90;;;;;;6241694;22;20784;-88
2022/10/12 03:45:35;;;;;;;8.80;3.08;;;6.80;99.90;;;;;;6242005;22;20020;-88
2022/10/12 03:48:01;;;;;;;11.23;2.90;;;6.80;99.90;;;;;;6240161;23;20401;-88
2022/10/12 03:50:27;;;;;;;11.10;3.58;;;6.80;99.90;;;;;;6239604;23;20012;-88
2022/10/12 03:52:53;;;;;;;12.07;3.17;;;6.80;99.90;;;;;;6239827;23;20035;-88
2022/10/12 03:55:19;;;;;;;8.80;3.50;;;6.80;99.90;;;;;;6238782;23;20031;-88
2022/10/12 03:57:44;;;;;;;7.78;2.83;;;6.80;99.90;;;;;;6241953;22;20048;-88
2022/10/12 04:00:11;;;;;;;10.25;3.47;;;6.80;99.90;;;;;;6241715;22;20088;-88
2022/10/12 04:02:38;;;;;;;9.77;2.80;;;6.80;99.90;;;;;;6240093;23;20004;-88
2022/10/12 04:05:04;;;;;;;6.70;2.67;;;6.80;99.90;;;;;;6239822;23;20074;-88
2022/10/12 04:07:30;;;;;;;7.65;3.10;;;6.80;99.90;;;;;;6241060;22;20123;-88
2022/10/12 04:09:55;;;;;;;8.07;3.00;;;6.80;99.90;;;;;;6239926;23;20046;-88
2022/10/12 04:12:21;;;;;;;9.10;3.15;;;6.80;99.90;;;;;;6239637;23;20016;-88
2022/10/12 04:14:46;;;;;;;9.63;3.30;;;6.80;99.90;;;;;;6214514;23;20020;-89
2022/10/12 04:17:15;;;;;;;6.40;2.50;;;6.80;99.90;;;;;;6241369;23;20441;-88
2022/10/12 04:19:41;;;;;;;11.80;3.13;;;6.80;99.90;;;;;;6241514;22;20434;-88
2022/10/12 04:22:06;;;;;;;8.50;2.30;;;6.80;99.90;;;;;;6241069;22;20055;-88
2022/10/12 04:24:32;;;;;;;7.47;2.63;;;6.80;99.90;;;;;;6239762;23;20759;-88
2022/10/12 04:26:57;;;;;;;9.57;2.80;;;6.80;99.90;;;;;;6241349;22;20008;-88
2022/10/12 04:29:23;;;;;;;7.45;2.72;;;6.80;99.90;;;;;;6241360;23;20065;-88
2022/10/12 04:31:48;;;;;;;10.93;3.45;;;6.80;99.90;;;;;;6239842;23;20012;-89
2022/10/12 04:34:14;;;;;;;8.93;2.40;;;6.80;99.90;;;;;;6239909;23;20453;-88
2022/10/12 04:36:40;;;;;;;7.90;2.55;;;6.80;99.90;;;;;;6238916;23;20016;-88
2022/10/12 04:39:05;;;;;;;8.35;2.30;;;6.80;99.90;;;;;;6241564;23;20016;-89
2022/10/12 04:41:31;;;;;;;7.55;2.85;;;6.80;99.90;;;;;;6239194;23;20012;-88
2022/10/12 04:43:57;;;;;;;10.95;2.97;;;6.80;99.90;;;;;;6238532;23;20040;-88
2022/10/12 04:46:22;;;;;;;8.73;2.50;;;6.80;99.90;;;;;;6213514;23;20039;-88
2022/10/12 04:48:48;;;;;;;7.03;2.80;;;6.90;99.90;;;;;;6240765;23;20334;-88
2022/10/12 04:51:14;;;;;;;7.28;3.28;;;6.70;99.90;;;;;;6240485;23;20008;-87
2022/10/12 04:53:39;;;;;;;9.35;2.50;;;6.70;99.90;;;;;;6240714;22;20376;-88
2022/10/12 04:56:06;;;;;;;8.77;2.95;;;6.70;99.90;;;;;;6240314;22;20107;-88
2022/10/12 04:58:32;;;;;;;5.13;2.58;;;6.70;99.90;;;;;;6240613;22;20016;-88
2022/10/12 05:00:58;;;;;;;8.80;2.63;;;6.70;99.90;;;;;;6239023;23;20038;-89
2022/10/12 05:03:24;;;;;;;11.75;2.67;;;6.60;99.90;;;;;;6239429;23;20115;-88
2022/10/12 05:05:50;;;;;;;11.85;3.20;;;6.60;99.90;;;;;;6240651;23;20074;-88
2022/10/12 05:08:15;;;;;;;9.65;2.95;;;6.60;99.90;;;;;;6240123;22;20004;-87
2022/10/12 05:10:41;;;;;;;7.80;2.80;;;6.60;99.90;;;;;;6240666;23;20019;-88
2022/10/12 05:13:07;;;;;;;8.90;2.88;;;6.60;99.90;;;;;;6242304;22;20008;-87
2022/10/12 05:15:33;;;;;;;11.75;4.00;;;6.80;99.90;;;;;;6240335;23;20014;-89
2022/10/12 05:17:58;;;;;;;9.98;3.28;;;6.60;99.90;;;;;;6240403;23;20034;-88
2022/10/12 05:20:24;;;;;;;10.20;2.85;;;6.50;99.90;;;;;;6241287;23;20016;-88
2022/10/12 05:22:50;;;;;;;8.13;2.53;;;6.60;99.90;;;;;;6215108;23;20020;-88
2022/10/12 05:25:16;;;;;;;8.48;3.08;;;6.50;99.90;;;;;;6242337;23;20045;-88
2022/10/12 05:27:41;;;;;;;13.63;2.88;;;6.50;99.90;;;;;;6240000;23;20016;-86
2022/10/12 05:30:08;;;;;;;7.72;3.20;;;6.50;99.90;;;;;;6242276;23;20008;-87
2022/10/12 05:32:34;;;;;;;6.72;3.03;;;6.40;99.90;;;;;;6241980;22;20083;-88
2022/10/12 05:34:59;;;;;;;7.38;2.83;;;6.40;99.90;;;;;;6239688;23;20012;-86
2022/10/12 05:37:25;;;;;;;7.22;3.47;;;6.40;99.90;;;;;;6240436;23;20102;-87
2022/10/12 05:39:51;;;;;;;12.23;3.92;;;6.30;99.90;;;;;;6241888;23;20073;-88
2022/10/12 05:42:17;;;;;;;13.85;3.75;;;6.30;99.90;;;;;;6240045;23;20508;-88
2022/10/12 05:44:42;;;;;;;11.40;3.60;;;6.20;99.90;;;;;;6240253;23;20019;-88
2022/10/12 05:47:08;;;;;;;14.73;4.97;;;6.20;99.90;;;;;;6239126;23;20385;-88
2022/10/12 05:49:34;;;;;;;7.85;4.85;;;6.20;99.90;;;;;;6240458;22;20038;-86
2022/10/12 05:52:00;;;;;;;11.95;4.60;;;6.20;99.90;;;;;;6239006;23;20012;-86
2022/10/12 05:54:25;;;;;;;13.10;5.35;;;6.20;99.90;;;;;;6240573;23;20062;-87
2022/10/12 05:56:51;;;;;;;13.73;6.63;;;6.20;99.90;;;;;;6240074;23;20023;-86
2022/10/12 05:59:16;;;;;;;14.93;5.60;;;6.10;99.90;;;;;;6243253;23;20492;-86
2022/10/12 06:01:42;;;;;;;14.15;4.97;;;6.20;99.90;;;;;;6242502;23;20475;-86
2022/10/12 06:04:08;;;;;;;11.35;4.90;;;6.10;99.90;;;;;;6239951;23;20017;-87
2022/10/12 06:06:33;;;;;;;10.20;4.78;;;6.10;99.90;;;;;;6241235;23;20040;-88
2022/10/12 06:08:59;;;;;;;18.98;7.15;;;6.10;99.90;;;;;;6242482;23;20016;-87
2022/10/12 06:11:25;;;;;;;15.75;7.07;;;6.10;99.90;;;;;;6242621;23;20322;-86
2022/10/12 06:13:53;;;;;;;15.65;7.38;;;6.10;99.90;;;;;;6240255;23;20385;-87
2022/10/12 06:16:18;;;;;;;13.20;6.93;;;6.10;99.90;;;;;;6242172;22;20016;-87
2022/10/12 06:18:44;;;;;;;13.80;6.75;;;6.20;99.90;;;;;;6241171;23;20330;-84
2022/10/12 06:21:09;;;;;;;13.02;5.75;;;6.20;99.90;;;;;;6239576;23;20407;-84
2022/10/12 06:23:35;;;;;;;15.07;5.65;;;6.20;99.90;;;;;;6241847;23;20012;-85
2022/10/12 06:26:01;;;;;;;12.40;5.55;;;6.20;99.90;;;;;;6241279;23;20020;-83
2022/10/12 06:28:26;;;;;;;17.20;7.00;;;6.20;99.90;;;;;;6240806;22;20020;-85
2022/10/12 06:30:57;;;;;;;12.25;6.22;;;6.20;99.90;;;;;;6241661;23;20012;-85
2022/10/12 06:33:23;;;;;;;11.75;6.03;;;6.20;99.90;;;;;;6241567;22;20004;-84
2022/10/12 06:35:49;;;;;;;14.85;7.20;;;6.20;99.90;;;;;;6241633;23;20515;-86
2022/10/12 06:38:15;;;;;;;19.00;8.95;;;6.20;99.90;;;;;;6241613;23;20008;-85
2022/10/12 06:40:41;;;;;;;20.05;10.30;;;5.80;99.90;;;;;;6242126;22;20008;-85
2022/10/12 06:43:07;;;;;;;21.55;12.95;;;6.20;99.90;;;;;;6240817;22;20341;-85
2022/10/12 06:45:32;;;;;;;20.42;13.80;;;6.20;99.90;;;;;;6241241;23;20087;-84
2022/10/12 06:47:58;;;;;;;21.90;16.27;;;6.20;99.90;;;;;;6240377;23;20016;-86
2022/10/12 06:50:25;;;;;;;19.25;11.02;;;6.30;99.90;;;;;;6241106;23;20004;-85
2022/10/12 06:52:51;;;;;;;20.45;12.60;;;6.30;99.90;;;;;;6241150;22;20054;-86
2022/10/12 06:55:17;;;;;;;24.65;10.52;;;6.30;99.90;;;;;;6241146;22;20035;-82
2022/10/12 06:57:43;;;;;;;19.73;10.50;;;6.30;99.90;;;;;;6239450;23;20016;-85
2022/10/12 07:00:09;;;;;;;23.17;9.60;;;6.30;99.90;;;;;;6241443;23;20020;-85
2022/10/12 07:02:35;;;;;;;21.13;9.85;;;6.30;99.90;;;;;;6238913;23;20480;-87
2022/10/12 07:05:01;;;;;;;18.00;10.27;;;6.40;99.90;;;;;;6239228;23;20023;-85
2022/10/12 07:07:30;;;;;;;21.52;10.68;;;6.40;99.90;;;;;;6239185;23;20024;-93
2022/10/12 07:09:56;;;;;;;25.88;10.10;;;6.40;99.90;;;;;;6243568;22;20091;-86
2022/10/12 07:12:22;;;;;;;19.58;9.50;;;6.40;99.90;;;;;;6241476;22;20039;-86
2022/10/12 07:14:48;;;;;;;20.10;10.10;;;6.40;99.90;;;;;;6240558;23;20141;-86
2022/10/12 07:17:13;;;;;;;18.40;10.50;;;6.40;99.90;;;;;;6240730;23;20047;-85
2022/10/12 07:19:39;;;;;;;19.30;9.88;;;6.50;99.90;;;;;;6241161;23;20062;-86
2022/10/12 07:22:05;;;;;;;19.75;10.13;;;6.50;99.90;;;;;;6240886;22;20042;-86
2022/10/12 07:24:39;;;;;;;17.10;10.00;;;6.50;99.90;;;;;;6241763;22;20055;-86
2022/10/12 07:27:08;;;;;;;16.60;10.25;;;6.50;99.90;;;;;;6238772;23;20040;-86
2022/10/12 07:29:35;;;;;;;18.15;10.27;;;6.60;99.90;;;;;;6239368;23;20019;-86
2022/10/12 07:32:01;;;;;;;18.02;10.38;;;6.60;99.90;;;;;;6240021;22;20066;-86
2022/10/12 07:34:27;;;;;;;18.67;10.10;;;6.80;99.90;;;;;;6241790;22;20012;-86
2022/10/12 07:36:52;;;;;;;19.42;9.23;;;6.70;99.90;;;;;;6239030;23;20111;-87
2022/10/12 07:39:19;;;;;;;21.77;10.35;;;6.80;99.90;;;;;;6239644;23;20108;-87
2022/10/12 07:41:44;;;;;;;17.48;9.60;;;6.80;99.90;;;;;;6241021;22;20087;-86
2022/10/12 07:44:10;;;;;;;21.67;10.43;;;6.80;99.90;;;;;;6240564;23;20097;-86
2022/10/12 07:46:36;;;;;;;22.17;10.32;;;7.30;99.90;;;;;;6240949;22;20012;-86
2022/10/12 07:49:02;;;;;;;21.35;10.00;;;7.00;99.90;;;;;;6238689;23;20008;-86
2022/10/12 07:51:28;;;;;;;23.50;10.65;;;7.00;99.90;;;;;;6239727;23;20008;-86
2022/10/12 07:53:54;;;;;;;18.95;9.90;;;7.10;99.90;;;;;;6238911;23;20008;-87
2022/10/12 07:56:19;;;;;;;19.10;10.10;;;7.20;99.90;;;;;;6241011;23;20031;-86
2022/10/12 07:58:50;;;;;;;17.83;9.57;;;7.20;99.90;;;;;;6240680;23;20023;-87
2022/10/12 08:01:17;;;;;;;19.08;10.32;;;7.30;99.90;;;;;;6240075;22;20095;-86
2022/10/12 08:03:43;;;;;;;20.15;9.57;;;7.40;99.90;;;;;;6241110;22;20012;-86
2022/10/12 08:06:14;;;;;;;18.40;9.93;;;7.50;99.90;;;;;;6240772;23;20322;-87
2022/10/12 08:08:40;;;;;;;19.90;10.00;;;7.60;99.90;;;;;;6240816;22;20056;-86
2022/10/12 08:11:07;;;;;;;21.13;9.15;;;7.60;99.90;;;;;;6213943;23;20023;-88
2022/10/12 08:13:33;;;;;;;16.33;9.02;;;7.70;99.90;;;;;;6240910;22;20066;-86
2022/10/12 08:16:00;;;;;;;17.77;9.05;;;7.70;99.90;;;;;;6240109;23;20008;-86
2022/10/12 08:18:26;;;;;;;19.67;9.63;;;7.80;99.90;;;;;;6239088;23;20008;-86
2022/10/12 08:20:51;;;;;;;16.77;8.45;;;7.90;99.90;;;;;;6240197;23;20130;-86
2022/10/12 08:23:17;;;;;;;18.67;8.95;;;8.10;99.90;;;;;;6238570;23;20341;-86
2022/10/12 08:25:54;;;;;;;21.23;8.52;;;8.20;99.90;;;;;;6240948;23;20652;-87
2022/10/12 08:28:20;;;;;;;16.10;8.35;;;8.30;99.90;;;;;;6238602;23;20016;-87
2022/10/12 08:30:46;;;;;;;19.13;7.85;;;8.50;99.90;;;;;;6240962;22;20008;-87
2022/10/12 08:33:12;;;;;;;21.50;8.18;;;8.50;99.90;;;;;;6240716;22;20012;-87
2022/10/12 08:35:40;;;;;;;18.92;7.65;;;8.60;99.90;;;;;;6240515;22;20023;-88
2022/10/12 08:38:08;;;;;;;17.88;7.25;;;8.70;99.90;;;;;;6240206;22;20016;-87
2022/10/12 08:40:56;;;;;;;17.60;6.85;;;8.80;99.90;;;;;;6241203;22;20008;-87
2022/10/12 08:43:40;;;;;;;16.58;6.60;;;8.80;99.90;;;;;;6177194;22;20507;-87
2022/10/12 08:46:06;;;;;;;15.27;6.13;;;9.00;99.90;;;;;;6239035;23;20065;-87
2022/10/12 08:48:50;;;;;;;17.70;6.18;;;9.20;99.90;;;;;;6240649;22;20087;-87
2022/10/12 08:51:21;;;;;;;12.88;5.85;;;9.30;99.90;;;;;;6241017;22;20011;-88
2022/10/12 08:53:56;;;;;;;15.57;5.68;;;9.40;99.90;;;;;;6213676;23;20031;-87
2022/10/12 08:56:22;;;;;;;12.35;5.30;;;9.60;99.90;;;;;;6240541;22;20031;-87
2022/10/12 08:58:50;;;;;;;14.13;5.20;;;9.70;99.90;;;;;;6238586;23;20020;-87
2022/10/12 09:01:31;;;;;;;16.70;5.03;;;10.10;99.90;;;;;;6240470;22;20016;-87
2022/10/12 09:04:06;;;;;;;13.45;5.05;;;9.80;99.90;;;;;;6240468;22;20047;-87
2022/10/12 09:06:46;;;;;;;12.73;4.60;;;10.40;99.90;;;;;;6238821;23;20048;-87
2022/10/12 09:09:49;;;;;;;15.23;5.25;;;9.90;99.90;;;;;;6240651;22;20016;-88
2022/10/12 09:12:24;;;;;;;10.23;3.88;;;10.00;99.90;;;;;;6239867;23;20090;-87
2022/10/12 09:14:52;;;;;;;11.82;4.70;;;10.00;99.90;;;;;;6237968;23;20012;-87
2022/10/12 09:17:27;;;;;;;11.23;3.90;;;10.10;99.90;;;;;;6240983;22;20019;-88
2022/10/12 09:20:14;;;;;;;14.48;5.20;;;10.10;99.90;;;;;;6238438;23;20026;-87
2022/10/12 09:22:44;;;;;;;12.85;5.10;;;10.20;99.90;;;;;;6241052;23;20016;-87
2022/10/12 09:25:12;;;;;;;11.40;4.68;;;10.20;99.90;;;;;;6238317;23;20012;-88
2022/10/12 09:27:39;;;;;;;13.27;5.38;;;10.30;99.90;;;;;;6240677;22;20116;-87
2022/10/12 09:30:06;;;;;;;11.57;4.72;;;10.30;99.90;;;;;;6240280;22;20012;-88
2022/10/12 09:32:52;;;;;;;11.73;4.05;;;10.40;99.90;;;;;;6242358;22;20035;-88
2022/10/12 09:35:18;;;;;;;11.65;4.93;;;10.50;99.90;;;;;;6242587;23;20103;-88
2022/10/12 09:37:49;;;;;;;14.48;4.20;;;10.70;99.90;;;;;;6240655;23;20040;-88
2022/10/12 09:40:23;;;;;;;10.55;3.33;;;11.10;99.90;;;;;;6240650;23;20035;-87
2022/10/12 09:42:50;;;;;;;11.48;3.38;;;11.20;99.90;;;;;;6241746;22;20023;-87
2022/10/12 09:45:18;;;;;;;12.85;3.50;;;11.20;99.90;;;;;;6242586;22;20008;-88
2022/10/12 09:48:10;;;;;;;10.27;3.38;;;11.40;99.90;;;;;;6240526;23;20015;-89
2022/10/12 09:50:54;;;;;;;16.52;4.32;;;11.60;99.90;;;;;;6239293;23;20043;-88
2022/10/12 09:53:42;;;;;;;11.60;2.80;;;11.80;99.90;;;;;;6242101;22;20429;-88
2022/10/12 09:56:29;;;;;;;11.60;3.38;;;12.00;99.90;;;;;;6240924;22;20243;-88
2022/10/12 09:58:59;;;;;;;15.70;3.45;;;12.10;99.90;;;;;;6242205;22;20016;-88
2022/10/12 10:01:28;;;;;;;8.93;3.20;;;12.20;99.90;;;;;;6240718;23;20023;-88
2022/10/12 10:04:16;;;;;;;8.15;2.92;;;12.30;99.90;;;;;;6215019;23;20019;-88
2022/10/12 10:06:45;;;;;;;8.65;3.00;;;12.80;99.90;;;;;;6242066;22;20519;-87
2022/10/12 10:09:37;;;;;;;9.70;2.60;;;12.60;99.90;;;;;;6241200;23;20008;-87
2022/10/12 10:12:24;;;;;;;13.50;3.00;;;12.80;99.90;;;;;;6233735;23;20450;-89
2022/10/12 10:14:57;;;;;;;10.50;3.22;;;12.90;99.90;;;;;;6243590;22;20015;-88
2022/10/12 10:17:30;;;;;;;7.60;2.58;;;13.00;99.90;;;;;;6241987;23;20434;-89
2022/10/12 10:19:57;;;;;;;10.07;3.30;;;13.20;99.90;;;;;;6241289;23;20024;-88
2022/10/12 10:22:24;;;;;;;12.05;2.95;;;13.20;99.90;;;;;;6241443;23;20067;-88
2022/10/12 10:24:58;;;;;;;10.10;2.72;;;13.30;99.90;;;;;;6241458;23;20015;-88
2022/10/12 10:27:44;;;;;;;10.85;2.40;;;13.30;99.90;;;;;;6243070;23;20017;-88
2022/10/12 10:30:16;;;;;;;13.60;2.35;;;13.50;99.90;;;;;;6241623;23;20008;-88
2022/10/12 10:32:43;;;;;;;14.88;2.42;;;13.60;99.90;;;;;;6242368;23;20012;-87
2022/10/12 10:35:28;;;;;;;7.43;2.10;;;13.80;99.90;;;;;;6242894;23;20019;-88
2022/10/12 10:38:17;;;;;;;11.52;2.67;;;13.90;99.90;;;;;;6242721;23;20031;-89
2022/10/12 10:41:05;;;;;;;7.80;2.85;;;13.90;99.90;;;;;;6243836;23;20065;-87
2022/10/12 10:43:50;;;;;;;10.88;3.05;;;14.00;99.90;;;;;;6242269;23;20035;-85
2022/10/12 10:46:36;;;;;;;11.13;2.97;;;14.10;99.90;;;;;;6242622;23;20091;-89
2022/10/12 10:49:06;;;;;;;8.52;2.40;;;14.20;99.90;;;;;;6243532;23;20024;-89
2022/10/12 10:51:50;;;;;;;10.10;2.13;;;14.70;99.90;;;;;;6217770;23;20022;-89
2022/10/12 10:54:28;;;;;;;11.35;2.30;;;14.50;99.90;;;;;;6217167;23;20018;-88
2022/10/12 10:57:20;;;;;;;12.65;2.65;;;14.50;99.90;;;;;;6241870;23;20020;-88
2022/10/12 10:59:57;;;;;;;10.80;2.67;;;14.50;99.90;;;;;;6241999;23;20016;-88
2022/10/12 11:02:56;;;;;;;8.93;2.17;;;14.60;99.90;;;;;;6217160;23;20082;-88
2022/10/12 11:05:36;;;;;;;10.00;2.58;;;14.70;99.90;;;;;;6233228;23;20012;-88
2022/10/12 11:08:17;;;;;;;11.13;2.03;;;14.80;99.90;;;;;;6216341;23;20030;-88
2022/10/12 11:10:56;;;;;;;7.25;1.60;;;14.90;99.90;;;;;;6241904;23;20008;-89
2022/10/12 11:13:32;;;;;;;7.90;1.80;;;15.10;99.90;;;;;;6242980;22;20012;-88
2022/10/12 11:16:24;;;;;;;8.00;1.83;;;15.20;99.90;;;;;;6215527;23;20091;-88
2022/10/12 11:18:56;;;;;;;9.45;2.05;;;15.40;99.90;;;;;;6214893;23;20062;-89
2022/10/12 11:21:37;;;;;;;4.72;1.77;;;15.50;99.90;;;;;;6242074;22;20012;-88
2022/10/12 11:24:32;;;;;;;9.15;1.60;;;15.50;99.90;;;;;;6240543;23;20085;-89
2022/10/12 11:27:11;;;;;;;7.13;1.80;;;15.60;99.90;;;;;;6242024;23;20116;-89
2022/10/12 11:29:37;;;;;;;9.98;1.80;;;15.70;99.90;;;;;;6215556;23;20027;-89
2022/10/12 11:32:28;;;;;;;10.50;1.60;;;15.70;99.90;;;;;;6240898;22;20016;-89
2022/10/12 11:35:00;;;;;;;9.15;1.80;;;15.80;99.90;;;;;;6222281;23;20070;-89
2022/10/12 11:37:38;;;;;;;7.05;1.58;;;15.80;99.90;;;;;;6241298;22;20038;-89
2022/10/12 11:40:08;;;;;;;7.95;1.30;;;15.80;99.90;;;;;;6239733;23;20019;-89
2022/10/12 11:42:41;;;;;;;8.90;1.58;;;15.80;99.90;;;;;;6239719;23;20035;-88
2022/10/12 11:45:29;;;;;;;8.63;1.40;;;15.90;99.90;;;;;;6239237;23;20052;-89
2022/10/12 11:48:01;;;;;;;7.75;1.58;;;15.90;99.80;;;;;;6239407;23;20052;-89
2022/10/12 11:50:43;;;;;;;8.73;1.52;;;16.40;99.90;;;;;;6241888;22;20012;-89
2022/10/12 11:53:19;;;;;;;6.57;2.20;;;16.20;99.90;;;;;;6241374;22;20016;-88
2022/10/12 11:55:48;;;;;;;9.48;1.95;;;16.30;99.90;;;;;;6238937;22;20031;-88
2022/10/12 11:58:36;;;;;;;9.48;1.75;;;16.40;99.90;;;;;;6239434;23;20067;-87
2022/10/12 12:01:28;;;;;;;9.10;1.60;;;16.40;99.90;;;;;;6240054;23;20012;-90
2022/10/12 12:04:12;;;;;;;7.63;1.50;;;16.60;99.90;;;;;;6214723;23;20016;-89
2022/10/12 12:06:43;;;;;;;9.50;1.35;;;16.60;99.90;;;;;;6239098;23;20016;-89
2022/10/12 12:09:40;;;;;;;10.63;1.48;;;16.60;99.20;;;;;;6241994;23;20012;-90
2022/10/12 12:12:15;;;;;;;6.25;1.60;;;16.70;98.90;;;;;;6241822;22;20012;-90
2022/10/12 12:15:05;;;;;;;7.28;1.88;;;16.70;99.90;;;;;;6241750;22;20050;-90
2022/10/12 12:17:32;;;;;;;7.97;1.67;;;16.80;99.20;;;;;;6239949;23;20020;-90
2022/10/12 12:20:00;;;;;;;9.75;1.80;;;17.20;99.90;;;;;;6237759;23;20417;-88
2022/10/12 12:22:51;;;;;;;8.77;1.50;;;16.80;99.90;;;;;;6240147;22;20004;-89
2022/10/12 12:25:31;;;;;;;9.32;1.52;;;16.90;99.20;;;;;;6239148;23;20020;-88
2022/10/12 12:28:17;;;;;;;6.25;1.50;;;17.00;99.10;;;;;;6214748;23;20103;-88
2022/10/12 12:30:58;;;;;;;8.48;1.77;;;17.00;97.10;;;;;;6241014;22;20008;-88
2022/10/12 12:33:30;;;;;;;6.28;1.73;;;17.00;97.90;;;;;;6241009;22;20031;-88
2022/10/12 12:36:02;;;;;;;9.93;1.70;;;17.00;97.70;;;;;;6240690;22;20084;-88
2022/10/12 12:38:33;;;;;;;8.32;1.52;;;16.90;97.30;;;;;;6240430;22;20008;-88
2022/10/12 12:41:11;;;;;;;6.38;1.65;;;16.90;97.30;;;;;;6241397;22;20013;-88
2022/10/12 12:43:48;;;;;;;6.85;1.90;;;16.90;97.80;;;;;;6241690;22;20455;-88
2022/10/12 12:46:14;;;;;;;8.65;1.63;;;16.80;97.40;;;;;;6240296;23;20020;-89
2022/10/12 12:48:40;;;;;;;7.57;1.65;;;16.90;98.70;;;;;;6239816;23;20008;-88
2022/10/12 12:51:10;;;;;;;9.55;2.10;;;16.90;98.00;;;;;;6240783;23;20054;-89
2022/10/12 12:54:11;;;;;;;7.72;1.55;;;17.00;99.00;;;;;;6241418;22;20441;-88
2022/10/12 12:57:05;;;;;;;7.55;1.63;;;17.00;98.10;;;;;;6231600;22;20030;-88
2022/10/12 12:59:54;;;;;;;10.20;1.70;;;17.10;98.40;;;;;;6240625;23;20020;-88
2022/10/12 13:03:01;;;;;;;7.70;1.77;;;17.20;98.40;;;;;;6240882;22;20251;-88
2022/10/12 13:05:36;;;;;;;8.82;1.80;;;17.30;97.30;;;;;;6239524;23;20019;-87
2022/10/12 13:08:10;;;;;;;7.43;2.50;;;17.40;97.50;;;;;;6243367;23;20022;-87
2022/10/12 13:10:42;;;;;;;7.10;1.60;;;17.40;98.50;;;;;;6241300;23;20430;-87